createdAt,value
2022-08-05T00:01:35.527Z,26.26
2022-08-05T00:04:02.507Z,26.22
2022-08-05T00:06:35.930Z,26.16
2022-08-05T00:09:04.919Z,26.02
2022-08-05T00:11:49.105Z,26.03
2022-08-05T00:14:22.476Z,25.98
2022-08-05T00:16:54.666Z,26.06
2022-08-05T00:19:22.768Z,25.99
2022-08-05T00:21:51.911Z,26.18
2022-08-05T00:24:24.814Z,26.32
2022-08-05T00:26:59.077Z,26.33
2022-08-05T00:29:27.473Z,26.00
2022-08-05T00:32:12.180Z,25.78
2022-08-05T00:35:05.197Z,25.73
2022-08-05T00:37:50.632Z,25.99
2022-08-05T00:40:28.131Z,26.11
2022-08-05T00:43:02.696Z,25.77
2022-08-05T00:45:42.970Z,25.87
2022-08-05T00:48:12.827Z,25.53
2022-08-05T00:50:44.064Z,25.79
2022-08-05T00:54:00.110Z,25.47
2022-08-05T00:55:58.270Z,25.23
2022-08-05T00:58:27.402Z,25.21
2022-08-05T01:00:55.020Z,25.35
2022-08-05T01:03:22.762Z,25.08
2022-08-05T01:05:54.824Z,25.20
2022-08-05T01:08:30.730Z,25.25
2022-08-05T01:11:22.191Z,25.28
2022-08-05T01:14:04.210Z,25.31
2022-08-05T01:16:44.118Z,24.91
2022-08-05T01:19:46.390Z,25.23
2022-08-05T01:22:27.907Z,25.28
2022-08-05T01:25:22.777Z,25.17
2022-08-05T01:28:06.892Z,25.26
2022-08-05T01:30:39.882Z,25.30
2022-08-05T01:33:19.728Z,24.89
2022-08-05T01:35:51.177Z,24.72
2022-08-05T01:38:27.147Z,24.58
2022-08-05T01:40:57.497Z,24.66
2022-08-05T01:43:25.836Z,24.75
2022-08-05T01:45:56.458Z,25.00
2022-08-05T01:48:26.858Z,24.89
2022-08-05T01:50:56.477Z,25.00
2022-08-05T01:53:54.901Z,24.75
2022-08-05T01:58:11.157Z,24.96
2022-08-05T01:59:06.536Z,24.90
2022-08-05T02:01:37.987Z,24.53
2022-08-05T02:04:10.266Z,24.56
2022-08-05T02:06:39.120Z,24.40
2022-08-05T02:09:07.382Z,24.57
2022-08-05T02:11:48.177Z,24.63
2022-08-05T02:14:27.091Z,24.56
2022-08-05T02:16:56.210Z,24.54
2022-08-05T02:19:42.724Z,24.47
2022-08-05T02:22:27.285Z,24.25
2022-08-05T02:25:05.207Z,24.38
2022-08-05T02:27:58.059Z,24.44
2022-08-05T02:30:26.975Z,24.45
2022-08-05T02:32:57.083Z,24.28
2022-08-05T02:35:28.198Z,24.43
2022-08-05T02:38:02.161Z,24.31
2022-08-05T02:40:30.063Z,24.30
2022-08-05T02:42:59.129Z,24.08
2022-08-05T02:45:28.458Z,24.26
2022-08-05T02:48:06.427Z,24.14
2022-08-05T02:50:43.886Z,24.06
2022-08-05T02:53:19.168Z,24.13
2022-08-05T02:55:54.114Z,24.17
2022-08-05T02:58:26.766Z,24.21
2022-08-05T03:00:56.734Z,24.37
2022-08-05T03:03:24.200Z,24.23
2022-08-05T03:06:56.816Z,24.16
2022-08-05T03:08:42.583Z,24.14
2022-08-05T03:11:55.164Z,24.15
2022-08-05T03:14:13.835Z,23.99
2022-08-05T03:16:41.722Z,24.08
2022-08-05T03:19:17.123Z,24.02
2022-08-05T03:21:55.339Z,23.89
2022-08-05T03:24:29.419Z,23.95
2022-08-05T03:26:58.627Z,23.96
2022-08-05T03:29:45.302Z,24.13
2022-08-05T03:32:14.419Z,24.09
2022-08-05T03:34:50.542Z,24.26
2022-08-05T03:37:20.177Z,24.07
2022-08-05T03:39:59.182Z,24.37
2022-08-05T03:42:29.214Z,24.08
2022-08-05T03:44:58.843Z,24.05
2022-08-05T03:47:30.355Z,23.79
2022-08-05T03:50:01.939Z,23.96
2022-08-05T03:52:38.007Z,24.24
2022-08-05T03:56:05.718Z,23.91
2022-08-05T03:58:17.904Z,24.04
2022-08-05T04:00:46.457Z,24.22
2022-08-05T04:03:28.386Z,24.15
2022-08-05T04:05:58.095Z,24.16
2022-08-05T04:08:36.205Z,24.10
2022-08-05T04:11:06.035Z,24.00
2022-08-05T04:13:50.442Z,24.12
2022-08-05T04:16:24.959Z,23.57
2022-08-05T04:18:59.955Z,23.83
2022-08-05T04:22:09.084Z,24.03
2022-08-05T04:24:18.889Z,23.97
2022-08-05T04:26:49.224Z,24.09
2022-08-05T04:29:15.952Z,24.08
2022-08-05T04:31:43.021Z,24.22
2022-08-05T04:34:33.031Z,24.37
2022-08-05T04:36:56.796Z,24.44
2022-08-05T04:39:23.666Z,24.51
2022-08-05T04:41:51.394Z,24.50
2022-08-05T04:44:21.384Z,24.51
2022-08-05T04:46:56.089Z,24.40
2022-08-05T04:49:24.618Z,24.52
2022-08-05T04:52:05.469Z,24.77
2022-08-05T04:54:34.598Z,24.60
2022-08-05T04:57:01.558Z,24.79
2022-08-05T04:59:40.558Z,24.73
2022-08-05T05:02:37.630Z,24.82
2022-08-05T05:05:02.365Z,24.58
2022-08-05T05:07:32.110Z,24.94
2022-08-05T05:10:02.214Z,24.76
2022-08-05T05:12:29.985Z,24.88
2022-08-05T05:14:56.784Z,25.05
2022-08-05T05:17:55.909Z,24.79
2022-08-05T05:20:12.672Z,25.11
2022-08-05T05:22:40.675Z,25.37
2022-08-05T05:25:16.629Z,25.18
2022-08-05T05:27:48.554Z,24.88
2022-08-05T05:30:30.616Z,25.15
2022-08-05T05:33:00.770Z,24.73
2022-08-05T05:35:31.647Z,24.18
2022-08-05T05:38:08.896Z,24.01
2022-08-05T05:40:36.472Z,24.33
2022-08-05T05:43:03.421Z,25.00
2022-08-05T05:45:30.407Z,25.45
2022-08-05T05:48:05.512Z,25.16
2022-08-05T05:50:44.256Z,25.38
2022-08-05T05:53:22.089Z,25.31
2022-08-05T05:55:52.469Z,25.76
2022-08-05T05:58:31.428Z,25.50
2022-08-05T06:01:13.135Z,25.35
2022-08-05T06:04:01.078Z,25.26
2022-08-05T06:06:31.005Z,25.29
2022-08-05T06:08:58.671Z,26.06
2022-08-05T06:11:26.018Z,26.21
2022-08-05T06:13:54.054Z,26.40
2022-08-05T06:16:28.321Z,26.41
2022-08-05T06:18:59.961Z,26.27
2022-08-05T06:21:37.641Z,25.34
2022-08-05T06:24:12.193Z,25.89
2022-08-05T06:26:51.478Z,25.87
2022-08-05T06:29:25.389Z,25.16
2022-08-05T06:32:21.051Z,25.42
2022-08-05T06:34:53.567Z,26.23
2022-08-05T06:37:52.276Z,26.33
2022-08-05T06:40:11.337Z,25.81
2022-08-05T06:42:39.907Z,26.38
2022-08-05T06:45:09.350Z,25.84
2022-08-05T06:48:36.901Z,25.77
2022-08-05T06:50:24.964Z,25.83
2022-08-05T06:52:58.821Z,26.19
2022-08-05T06:55:38.026Z,26.14
2022-08-05T06:58:29.804Z,26.55
2022-08-05T07:00:59.538Z,26.92
2022-08-05T07:03:32.533Z,27.04
2022-08-05T07:06:05.799Z,27.00
2022-08-05T07:08:47.822Z,27.09
2022-08-05T07:11:22.282Z,26.92
2022-08-05T07:14:15.460Z,27.23
2022-08-05T07:18:00.620Z,26.82
2022-08-05T07:20:16.453Z,27.46
2022-08-05T07:22:28.890Z,27.51
2022-08-05T07:25:23.584Z,27.63
2022-08-05T07:27:59.466Z,28.20
2022-08-05T07:30:33.593Z,28.33
2022-08-05T07:33:09.270Z,28.42
2022-08-05T07:36:04.910Z,28.45
2022-08-05T07:38:33.491Z,27.92
2022-08-05T07:42:07.355Z,28.60
2022-08-05T07:43:50.408Z,28.69
2022-08-05T07:46:24.406Z,28.73
2022-08-05T07:49:02.294Z,28.75
2022-08-05T07:51:36.869Z,28.95
2022-08-05T07:54:05.938Z,28.98
2022-08-05T07:57:00.287Z,29.04
2022-08-05T07:59:30.988Z,29.18
2022-08-05T08:02:07.597Z,29.18
2022-08-05T08:04:44.755Z,28.94
2022-08-05T08:07:12.796Z,28.84
2022-08-05T08:09:39.548Z,29.22
2022-08-05T08:12:19.967Z,29.46
2022-08-05T08:14:53.526Z,29.41
2022-08-05T08:17:21.468Z,29.37
2022-08-05T08:20:10.719Z,29.20
2022-08-05T08:22:35.937Z,29.85
2022-08-05T08:25:16.513Z,29.77
2022-08-05T08:27:47.534Z,30.00
2022-08-05T08:30:29.551Z,30.16
2022-08-05T08:33:04.401Z,30.58
2022-08-05T08:35:41.584Z,30.88
2022-08-05T08:38:35.897Z,30.73
2022-08-05T08:41:09.933Z,30.93
2022-08-05T08:45:25.274Z,30.76
2022-08-05T08:46:29.312Z,30.54
2022-08-05T08:49:06.121Z,30.88
2022-08-05T08:52:03.268Z,31.01
2022-08-05T08:54:36.439Z,30.77
2022-08-05T08:57:11.226Z,30.92
2022-08-05T08:59:41.864Z,31.64
2022-08-05T09:02:16.623Z,31.44
2022-08-05T09:04:58.291Z,31.79
2022-08-05T09:07:40.135Z,31.99
2022-08-05T09:10:19.765Z,32.21
2022-08-05T09:12:51.030Z,32.18
2022-08-05T09:15:20.319Z,32.46
2022-08-05T09:17:49.699Z,32.19
2022-08-05T09:20:36.745Z,32.48
2022-08-05T09:23:05.098Z,32.74
2022-08-05T09:26:01.458Z,32.69
2022-08-05T09:28:32.365Z,32.56
2022-08-05T09:31:22.339Z,32.40
2022-08-05T09:33:59.727Z,32.54
2022-08-05T09:36:55.034Z,33.19
2022-08-05T09:39:39.425Z,33.13
2022-08-05T09:42:20.233Z,32.61
2022-08-05T09:44:56.330Z,32.75
2022-08-05T09:47:35.226Z,32.69
2022-08-05T09:50:18.037Z,32.88
2022-08-05T09:53:01.054Z,32.99
2022-08-05T09:55:58.716Z,32.66
2022-08-05T09:58:15.636Z,32.80
2022-08-05T10:00:53.363Z,32.85
2022-08-05T10:03:20.936Z,32.83
2022-08-05T10:06:02.672Z,33.17
2022-08-05T10:08:37.536Z,33.17
2022-08-05T10:11:13.167Z,33.88
2022-08-05T10:13:47.160Z,34.08
2022-08-05T10:16:41.803Z,33.94
2022-08-05T10:19:23.829Z,34.40
2022-08-05T10:22:09.129Z,34.23
2022-08-05T10:24:42.955Z,34.60
2022-08-05T10:27:14.958Z,35.25
2022-08-05T10:31:19.814Z,34.88
2022-08-05T10:32:53.684Z,35.17
2022-08-05T10:35:19.275Z,35.56
2022-08-05T10:37:47.437Z,35.86
2022-08-05T10:40:28.559Z,35.55
2022-08-05T10:43:01.463Z,35.28
2022-08-05T10:45:39.730Z,34.71
2022-08-05T10:48:38.371Z,35.35
2022-08-05T10:51:21.697Z,35.05
2022-08-05T10:54:23.050Z,34.80
2022-08-05T10:56:52.963Z,34.90
2022-08-05T11:00:02.103Z,35.19
2022-08-05T11:02:38.158Z,35.07
2022-08-05T11:05:05.455Z,34.93
2022-08-05T11:08:01.035Z,34.94
2022-08-05T11:10:27.159Z,35.05
2022-08-05T11:12:56.064Z,35.50
2022-08-05T11:16:00.803Z,35.69
2022-08-05T11:18:24.412Z,35.97
2022-08-05T11:20:52.970Z,36.45
2022-08-05T11:24:04.503Z,36.13
2022-08-05T11:26:32.890Z,36.27
2022-08-05T11:29:11.617Z,36.22
2022-08-05T11:31:58.457Z,36.45
2022-08-05T11:34:39.304Z,36.20
2022-08-05T11:38:28.627Z,36.21
2022-08-05T11:39:55.248Z,35.27
2022-08-05T11:42:28.158Z,35.20
2022-08-05T11:45:03.552Z,35.45
2022-08-05T11:47:49.655Z,35.80
2022-08-05T11:50:18.096Z,35.02
2022-08-05T11:52:48.831Z,35.11
2022-08-05T11:55:17.138Z,35.37
2022-08-05T11:58:10.649Z,36.24
2022-08-05T12:00:38.578Z,35.71
2022-08-05T12:03:29.515Z,36.00
2022-08-05T12:06:06.602Z,35.87
2022-08-05T12:08:57.929Z,36.22
2022-08-05T12:11:40.150Z,36.76
2022-08-05T12:14:10.327Z,36.32
2022-08-05T12:16:40.988Z,35.90
2022-08-05T12:20:16.837Z,36.67
2022-08-05T12:21:59.464Z,36.31
2022-08-05T12:24:28.142Z,36.83
2022-08-05T12:26:57.009Z,36.94
2022-08-05T12:29:25.962Z,37.10
2022-08-05T12:31:55.469Z,37.01
2022-08-05T12:34:31.744Z,37.45
2022-08-05T12:37:01.480Z,37.86
2022-08-05T12:39:34.498Z,37.91
2022-08-05T12:42:10.057Z,37.26
2022-08-05T12:44:43.007Z,36.83
2022-08-05T12:47:12.361Z,36.54
2022-08-05T12:50:04.037Z,36.25
2022-08-05T12:52:32.410Z,36.27
2022-08-05T12:55:32.820Z,35.38
2022-08-05T12:58:39.102Z,35.56
2022-08-05T13:02:03.963Z,35.49
2022-08-05T13:03:41.977Z,35.99
2022-08-05T13:06:17.717Z,35.61
2022-08-05T13:08:51.724Z,35.54
2022-08-05T13:12:01.043Z,35.85
2022-08-05T13:14:19.417Z,35.81
2022-08-05T13:16:53.774Z,35.84
2022-08-05T13:19:26.023Z,35.86
2022-08-05T13:21:56.683Z,35.69
2022-08-05T13:24:27.629Z,36.15
2022-08-05T13:27:22.929Z,36.58
2022-08-05T13:30:34.078Z,36.75
2022-08-05T13:32:50.566Z,37.25
2022-08-05T13:35:22.081Z,37.60
2022-08-05T13:37:55.586Z,37.73
2022-08-05T13:40:36.941Z,37.70
2022-08-05T13:43:12.227Z,37.90
2022-08-05T13:45:43.274Z,37.98
2022-08-05T13:48:57.367Z,37.71
2022-08-05T13:51:13.768Z,38.22
2022-08-05T13:53:47.843Z,38.42
2022-08-05T13:56:19.132Z,38.46
2022-08-05T13:58:52.999Z,38.70
2022-08-05T14:01:25.914Z,38.32
2022-08-05T14:04:21.863Z,38.54
2022-08-05T14:06:58.680Z,38.42
2022-08-05T14:09:42.926Z,38.98
2022-08-05T14:12:18.269Z,38.54
2022-08-05T14:14:59.914Z,38.65
2022-08-05T14:17:28.319Z,38.44
2022-08-05T14:20:00.939Z,38.37
2022-08-05T14:22:34.520Z,38.82
2022-08-05T14:25:02.540Z,38.98
2022-08-05T14:27:33.451Z,38.62
2022-08-05T14:30:01.104Z,39.06
2022-08-05T14:32:28.487Z,39.15
2022-08-05T14:34:57.009Z,38.97
2022-08-05T14:37:44.867Z,38.77
2022-08-05T14:40:14.207Z,38.46
2022-08-05T14:42:44.231Z,39.32
2022-08-05T14:45:11.627Z,39.28
2022-08-05T14:48:05.119Z,39.30
2022-08-05T14:50:25.297Z,39.01
2022-08-05T14:52:58.363Z,39.00
2022-08-05T14:55:28.702Z,38.98
2022-08-05T14:58:10.827Z,39.06
2022-08-05T15:00:57.914Z,39.45
2022-08-05T15:03:26.839Z,39.31
2022-08-05T15:06:08.159Z,38.87
2022-08-05T15:08:59.170Z,38.60
2022-08-05T15:11:52.767Z,38.84
2022-08-05T15:14:33.243Z,38.74
2022-08-05T15:17:01.118Z,38.73
2022-08-05T15:19:27.961Z,38.74
2022-08-05T15:22:01.338Z,38.58
2022-08-05T15:24:28.943Z,38.52
2022-08-05T15:26:57.145Z,38.49
2022-08-05T15:29:30.234Z,38.31
2022-08-05T15:32:03.069Z,38.69
2022-08-05T15:34:32.172Z,38.61
2022-08-05T15:37:03.554Z,38.60
2022-08-05T15:41:04.619Z,38.54
2022-08-05T15:42:53.549Z,37.92
2022-08-05T15:45:06.270Z,37.31
2022-08-05T15:47:35.859Z,37.52
2022-08-05T15:50:03.771Z,37.75
2022-08-05T15:52:53.108Z,37.59
2022-08-05T15:55:20.178Z,37.40
2022-08-05T15:57:52.468Z,37.33
2022-08-05T16:00:26.131Z,37.37
2022-08-05T16:03:06.476Z,37.45
2022-08-05T16:05:33.359Z,37.46
2022-08-05T16:08:00.215Z,37.26
2022-08-05T16:10:27.126Z,37.43
2022-08-05T16:12:56.211Z,37.46
2022-08-05T16:15:23.755Z,37.40
2022-08-05T16:17:57.702Z,37.18
2022-08-05T16:20:25.974Z,36.90
2022-08-05T16:22:55.116Z,36.58
2022-08-05T16:25:32.061Z,36.39
2022-08-05T16:28:09.442Z,36.40
2022-08-05T16:30:37.779Z,36.15
2022-08-05T16:33:04.759Z,36.05
2022-08-05T16:35:33.766Z,35.97
2022-08-05T16:38:18.848Z,35.79
2022-08-05T16:40:55.642Z,35.35
2022-08-05T16:43:30.446Z,35.59
2022-08-05T16:46:04.095Z,35.43
2022-08-05T16:48:38.494Z,35.30
2022-08-05T16:51:09.710Z,35.43
2022-08-05T16:54:04.215Z,35.38
2022-08-05T16:56:27.412Z,35.52
2022-08-05T16:58:54.296Z,35.19
2022-08-05T17:01:21.318Z,35.34
2022-08-05T17:03:51.863Z,35.25
2022-08-05T17:06:19.195Z,35.04
2022-08-05T17:08:52.788Z,35.08
2022-08-05T17:11:23.731Z,34.89
2022-08-05T17:14:00.655Z,34.80
2022-08-05T17:16:36.562Z,34.59
2022-08-05T17:19:07.862Z,34.60
2022-08-05T17:21:37.578Z,34.42
2022-08-05T17:24:19.487Z,34.18
2022-08-05T17:26:55.533Z,34.41
2022-08-05T17:29:33.869Z,34.40
2022-08-05T17:32:17.252Z,34.47
2022-08-05T17:34:48.151Z,34.49
2022-08-05T17:37:40.188Z,34.40
2022-08-05T17:40:11.013Z,34.59
2022-08-05T17:42:41.818Z,34.44
2022-08-05T17:45:20.087Z,34.27
2022-08-05T17:47:54.891Z,34.27
2022-08-05T17:50:30.406Z,34.22
2022-08-05T17:52:59.155Z,34.12
2022-08-05T17:55:34.595Z,34.22
2022-08-05T17:58:09.805Z,34.32
2022-08-05T18:00:39.924Z,33.99
2022-08-05T18:03:28.206Z,34.09
2022-08-05T18:06:04.582Z,34.23
2022-08-05T18:08:33.926Z,34.01
2022-08-05T18:11:01.256Z,34.05
2022-08-05T18:13:36.666Z,34.01
2022-08-05T18:16:13.466Z,32.91
2022-08-05T18:18:41.341Z,33.19
2022-08-05T18:21:20.067Z,33.23
2022-08-05T18:23:50.032Z,33.25
2022-08-05T18:26:27.807Z,33.27
2022-08-05T18:28:57.291Z,33.45
2022-08-05T18:31:24.355Z,33.49
2022-08-05T18:33:52.388Z,33.08
2022-08-05T18:36:19.521Z,33.19
2022-08-05T18:38:46.760Z,32.74
2022-08-05T18:41:53.710Z,32.55
2022-08-05T18:44:06.671Z,32.61
2022-08-05T18:46:34.997Z,32.37
2022-08-05T18:49:21.363Z,32.26
2022-08-05T18:52:08.933Z,31.99
2022-08-05T18:54:36.087Z,31.73
2022-08-05T18:57:09.675Z,31.78
2022-08-05T19:00:02.302Z,32.08
2022-08-05T19:02:29.732Z,31.96
2022-08-05T19:05:02.862Z,31.73
2022-08-05T19:07:47.997Z,32.08
2022-08-05T19:10:28.079Z,31.93
2022-08-05T19:12:56.593Z,31.80
2022-08-05T19:15:58.350Z,31.66
2022-08-05T19:18:21.052Z,31.84
2022-08-05T19:20:52.414Z,31.46
2022-08-05T19:23:22.569Z,30.55
2022-08-05T19:26:09.366Z,30.96
2022-08-05T19:28:42.249Z,30.87
2022-08-05T19:31:13.566Z,30.97
2022-08-05T19:33:48.694Z,30.85
2022-08-05T19:36:29.294Z,30.88
2022-08-05T19:38:59.094Z,30.53
2022-08-05T19:42:05.478Z,30.52
2022-08-05T19:44:16.889Z,30.39
2022-08-05T19:46:45.535Z,30.49
2022-08-05T19:49:17.127Z,30.39
2022-08-05T19:52:05.240Z,30.32
2022-08-05T19:54:34.126Z,30.03
2022-08-05T19:57:06.839Z,29.80
2022-08-05T20:00:00.448Z,29.69
2022-08-05T20:02:26.335Z,29.70
2022-08-05T20:04:55.441Z,29.86
2022-08-05T20:07:47.156Z,30.21
2022-08-05T20:10:14.127Z,30.33
2022-08-05T20:12:47.616Z,30.10
2022-08-05T20:15:48.987Z,30.07
2022-08-05T20:18:10.491Z,30.18
2022-08-05T20:20:56.600Z,30.01
2022-08-05T20:23:39.903Z,29.95
2022-08-05T20:26:16.625Z,29.85
2022-08-05T20:28:53.915Z,29.84
2022-08-05T20:31:37.034Z,29.52
2022-08-05T20:34:14.728Z,29.47
2022-08-05T20:36:43.452Z,29.61
2022-08-05T20:39:13.213Z,29.40
2022-08-05T20:41:43.295Z,29.70
2022-08-05T20:44:18.926Z,29.17
2022-08-05T20:46:57.507Z,29.37
2022-08-05T20:49:26.056Z,29.27
2022-08-05T20:51:54.520Z,29.01
2022-08-05T20:54:22.769Z,29.19
2022-08-05T20:56:52.820Z,29.13
2022-08-05T20:59:27.046Z,28.77
2022-08-05T21:02:07.600Z,28.95
2022-08-05T21:04:36.218Z,28.96
2022-08-05T21:07:04.941Z,28.66
2022-08-05T21:09:35.893Z,28.81
2022-08-05T21:12:08.890Z,28.89
2022-08-05T21:14:38.799Z,29.15
2022-08-05T21:17:06.251Z,29.23
2022-08-05T21:19:47.159Z,29.21
2022-08-05T21:22:18.723Z,29.17
2022-08-05T21:24:52.034Z,28.79
2022-08-05T21:27:25.239Z,28.87
2022-08-05T21:29:57.473Z,29.19
2022-08-05T21:32:27.201Z,29.23
2022-08-05T21:35:18.038Z,29.32
2022-08-05T21:37:47.150Z,29.24
2022-08-05T21:40:14.432Z,29.04
2022-08-05T21:42:45.285Z,28.82
2022-08-05T21:45:24.831Z,28.71
2022-08-05T21:48:02.371Z,28.98
2022-08-05T21:50:33.650Z,29.09
2022-08-05T21:53:04.523Z,28.95
2022-08-05T21:56:06.258Z,29.05
2022-08-05T21:58:32.058Z,29.12
2022-08-05T22:00:59.946Z,29.01
2022-08-05T22:03:49.099Z,29.16
2022-08-05T22:06:16.112Z,28.87
2022-08-05T22:08:50.573Z,28.68
2022-08-05T22:11:35.490Z,28.83
2022-08-05T22:14:31.328Z,28.67
2022-08-05T22:16:52.580Z,28.63
2022-08-05T22:20:00.579Z,28.63
2022-08-05T22:22:10.680Z,28.47
2022-08-05T22:24:56.141Z,28.67
2022-08-05T22:28:08.827Z,28.59
2022-08-05T22:30:32.212Z,28.59
2022-08-05T22:33:02.278Z,28.40
2022-08-05T22:35:38.541Z,27.94
2022-08-05T22:38:15.971Z,27.80
2022-08-05T22:40:49.438Z,28.30
2022-08-05T22:43:17.135Z,28.43
2022-08-05T22:46:11.907Z,28.42
2022-08-05T22:48:40.450Z,28.26
2022-08-05T22:51:08.090Z,28.18
2022-08-05T22:53:42.917Z,28.12
2022-08-05T22:56:17.384Z,28.15
2022-08-05T22:59:02.862Z,28.04
2022-08-05T23:01:50.617Z,27.99
2022-08-05T23:04:18.466Z,28.17
2022-08-05T23:06:45.996Z,28.28
2022-08-05T23:09:27.213Z,28.27
2022-08-05T23:12:01.577Z,28.06
2022-08-05T23:14:32.038Z,27.90
2022-08-05T23:17:24.055Z,27.86
2022-08-05T23:20:02.266Z,28.03
2022-08-05T23:22:29.703Z,28.14
2022-08-05T23:24:58.234Z,27.97
2022-08-05T23:27:31.374Z,27.88
2022-08-05T23:30:13.613Z,27.63
2022-08-05T23:32:40.823Z,27.90
2022-08-05T23:35:12.418Z,27.95
2022-08-05T23:37:39.296Z,28.06
2022-08-05T23:40:07.834Z,27.89
2022-08-05T23:42:37.357Z,27.82
2022-08-05T23:45:14.315Z,27.88
2022-08-05T23:47:47.517Z,27.55
2022-08-05T23:50:15.056Z,27.60
2022-08-05T23:52:49.952Z,27.66
2022-08-05T23:55:19.170Z,27.37
2022-08-05T23:57:51.159Z,26.93
